Startpagina
METAR-TAF:

METAR-TAF

Vliegvelden :

Schwäbisch Hall, Duitsland

breedte: 49-07-06N, lengte: 9-47-02E, hoogte: 398 m

Actueel weer

Dit bericht is 33 minuten geleden gemaakt, om 19:50 UTC
Weinig wind
Temperatuur 17°C
Vochtigheid 68%
Druk 1002 hPa
Zicht 10 km of meer

METAR: EDTY 031950Z AUTO 00000KT 9999 // FEW250/// 17/11 Q1002

Tijdstip: 22:23 (20:23 UTC)

Verwachting

Dit bericht is 6 uur en het 23 minuten geleden gemaakt, om 14:00 UTC
Verwachting geldig van 03 om 15 UTC tot 03 om 24 UTC
Wind 6 kt uit het westnoordwesten
Zicht 10 km of meer
geen wolken onder 1500 m en geen cumulonimbus
Tijdelijke
van 03 om 15 UTC tot 03 om 22 UTC
Wind 20 kt uit het noordwesten met uitschieters tot 35 kt
Weinig wolken op 2000 ft
Gebroken wolken op 4000 ft, Cumulonimbus.
onweer, regen
Wijzigt naar
van 03 om 18 UTC tot 03 om 20 UTC
Wind 3 kt uit variabele richting

TAF: EDTY 031400Z 0315/0324 29006KT CAVOK TEMPO 0315/0322 31020G35KT TSRA FEW020 BKN040CB BECMG 0318/0320 VRB03KT

Waarnemingen en weersverwachtingen van meer dan 4000 vliegvelden (METAR en TAF).

De beschikbare stations zijn de gele en rode punten op de kaart.

Ga met uw muis naar het station om de naam te zien.

Klik dan om waarnemingen en weersverwachtingen te zien.

kaart wijzigen: klik op de groene knoppen met een zwart kruis om in te zoomen, op de groene knop met een streepje om uit te zoomen of op de groene pijlen voor aangrenzende kaarten.


METAR-TAF: